sensor_id;sensor_type;location;lat;lon;timestamp;P1;durP1;ratioP1;P2;durP2;ratioP2
10440;SDS011;5268;49.346;9.522;2023-06-26T03:09:44;6.97;;;6.28;;
10440;SDS011;5268;49.346;9.522;2023-06-26T03:14:46;8.27;;;6.63;;
10440;SDS011;5268;49.346;9.522;2023-06-26T03:19:48;9.73;;;6.97;;
10440;SDS011;5268;49.346;9.522;2023-06-26T03:24:51;9.48;;;6.43;;
10440;SDS011;5268;49.346;9.522;2023-06-26T03:29:53;10.25;;;6.85;;
10440;SDS011;5268;49.346;9.522;2023-06-26T03:34:56;11.25;;;6.93;;
10440;SDS011;5268;49.346;9.522;2023-06-26T03:39:59;6.90;;;5.93;;
10440;SDS011;5268;49.346;9.522;2023-06-26T03:45:01;9.88;;;6.53;;
10440;SDS011;5268;49.346;9.522;2023-06-26T03:50:04;9.65;;;6.22;;
10440;SDS011;5268;49.346;9.522;2023-06-26T03:55:09;9.77;;;6.60;;
10440;SDS011;5268;49.346;9.522;2023-06-26T04:00:11;7.30;;;6.53;;
10440;SDS011;5268;49.346;9.522;2023-06-26T04:05:14;9.05;;;6.25;;
10440;SDS011;5268;49.346;9.522;2023-06-26T04:10:18;8.82;;;6.55;;
10440;SDS011;5268;49.346;9.522;2023-06-26T04:15:21;8.45;;;6.63;;
10440;SDS011;5268;49.346;9.522;2023-06-26T04:20:23;8.25;;;6.68;;
10440;SDS011;5268;49.346;9.522;2023-06-26T04:25:26;9.60;;;6.95;;
10440;SDS011;5268;49.346;9.522;2023-06-26T04:30:29;12.00;;;7.18;;
10440;SDS011;5268;49.346;9.522;2023-06-26T04:35:31;9.38;;;7.10;;
10440;SDS011;5268;49.346;9.522;2023-06-26T04:40:38;9.88;;;6.95;;
10440;SDS011;5268;49.346;9.522;2023-06-26T04:45:40;8.38;;;7.20;;
10440;SDS011;5268;49.346;9.522;2023-06-26T04:50:42;9.27;;;7.10;;
10440;SDS011;5268;49.346;9.522;2023-06-26T04:55:47;13.43;;;7.32;;
10440;SDS011;5268;49.346;9.522;2023-06-26T05:00:49;11.23;;;7.50;;
10440;SDS011;5268;49.346;9.522;2023-06-26T05:05:51;12.45;;;7.82;;
10440;SDS011;5268;49.346;9.522;2023-06-26T05:10:54;9.57;;;7.75;;
10440;SDS011;5268;49.346;9.522;2023-06-26T05:15:58;10.85;;;7.78;;
10440;SDS011;5268;49.346;9.522;2023-06-26T05:21:00;12.55;;;8.48;;
10440;SDS011;5268;49.346;9.522;2023-06-26T05:26:04;14.15;;;8.35;;
10440;SDS011;5268;49.346;9.522;2023-06-26T05:31:06;12.65;;;8.60;;
10440;SDS011;5268;49.346;9.522;2023-06-26T05:36:09;11.13;;;8.60;;
10440;SDS011;5268;49.346;9.522;2023-06-26T05:41:14;12.25;;;8.73;;
10440;SDS011;5268;49.346;9.522;2023-06-26T05:46:17;10.60;;;8.52;;
10440;SDS011;5268;49.346;9.522;2023-06-26T05:51:19;10.85;;;8.10;;
10440;SDS011;5268;49.346;9.522;2023-06-26T05:56:23;11.20;;;8.00;;
10440;SDS011;5268;49.346;9.522;2023-06-26T06:01:26;10.35;;;8.40;;
10440;SDS011;5268;49.346;9.522;2023-06-26T06:06:27;10.77;;;7.80;;
10440;SDS011;5268;49.346;9.522;2023-06-26T06:11:31;9.48;;;8.32;;
10440;SDS011;5268;49.346;9.522;2023-06-26T06:16:33;9.23;;;8.10;;
10440;SDS011;5268;49.346;9.522;2023-06-26T06:21:35;9.90;;;7.80;;
10440;SDS011;5268;49.346;9.522;2023-06-26T06:26:39;9.10;;;7.72;;
10440;SDS011;5268;49.346;9.522;2023-06-26T06:31:41;9.32;;;7.68;;
10440;SDS011;5268;49.346;9.522;2023-06-26T06:36:43;9.15;;;7.95;;
10440;SDS011;5268;49.346;9.522;2023-06-26T06:41:47;9.70;;;7.40;;
10440;SDS011;5268;49.346;9.522;2023-06-26T06:46:48;8.30;;;7.50;;
10440;SDS011;5268;49.346;9.522;2023-06-26T06:51:50;9.05;;;8.00;;
10440;SDS011;5268;49.346;9.522;2023-06-26T06:56:54;10.63;;;7.38;;
10440;SDS011;5268;49.346;9.522;2023-06-26T07:01:56;11.20;;;7.38;;
10440;SDS011;5268;49.346;9.522;2023-06-26T07:06:58;13.05;;;8.43;;
10440;SDS011;5268;49.346;9.522;2023-06-26T07:12:01;9.35;;;8.20;;
10440;SDS011;5268;49.346;9.522;2023-06-26T07:17:04;10.90;;;7.75;;
10440;SDS011;5268;49.346;9.522;2023-06-26T07:22:06;10.18;;;7.72;;
10440;SDS011;5268;49.346;9.522;2023-06-26T07:27:09;7.78;;;6.90;;
10440;SDS011;5268;49.346;9.522;2023-06-26T07:32:11;9.00;;;7.07;;
10440;SDS011;5268;49.346;9.522;2023-06-26T07:37:13;7.82;;;6.90;;
10440;SDS011;5268;49.346;9.522;2023-06-26T07:42:16;7.78;;;6.95;;
10440;SDS011;5268;49.346;9.522;2023-06-26T07:47:18;9.05;;;7.28;;
10440;SDS011;5268;49.346;9.522;2023-06-26T07:52:20;7.25;;;6.57;;
10440;SDS011;5268;49.346;9.522;2023-06-26T07:57:23;7.70;;;6.97;;
10440;SDS011;5268;49.346;9.522;2023-06-26T08:02:25;8.50;;;6.70;;
10440;SDS011;5268;49.346;9.522;2023-06-26T08:07:27;6.65;;;6.05;;
10440;SDS011;5268;49.346;9.522;2023-06-26T08:12:31;7.13;;;6.30;;
10440;SDS011;5268;49.346;9.522;2023-06-26T08:17:33;7.65;;;6.95;;
10440;SDS011;5268;49.346;9.522;2023-06-26T08:22:36;7.80;;;6.72;;
10440;SDS011;5268;49.346;9.522;2023-06-26T08:27:39;7.18;;;6.38;;
10440;SDS011;5268;49.346;9.522;2023-06-26T08:32:41;6.72;;;6.13;;
10440;SDS011;5268;49.346;9.522;2023-06-26T08:37:43;7.72;;;6.20;;
10440;SDS011;5268;49.346;9.522;2023-06-26T08:42:46;7.60;;;6.45;;
10440;SDS011;5268;49.346;9.522;2023-06-26T08:47:53;6.68;;;6.07;;
10440;SDS011;5268;49.346;9.522;2023-06-26T08:52:58;7.22;;;6.50;;
10440;SDS011;5268;49.346;9.522;2023-06-26T08:58:08;7.40;;;6.70;;
10440;SDS011;5268;49.346;9.522;2023-06-26T09:03:12;8.30;;;6.80;;
10440;SDS011;5268;49.346;9.522;2023-06-26T09:08:14;7.43;;;6.70;;
10440;SDS011;5268;49.346;9.522;2023-06-26T09:13:18;7.53;;;6.72;;
10440;SDS011;5268;49.346;9.522;2023-06-26T09:18:20;7.65;;;6.90;;
10440;SDS011;5268;49.346;9.522;2023-06-26T09:23:22;7.28;;;6.57;;
10440;SDS011;5268;49.346;9.522;2023-06-26T09:28:26;7.40;;;6.78;;
10440;SDS011;5268;49.346;9.522;2023-06-26T09:33:28;7.85;;;7.05;;
10440;SDS011;5268;49.346;9.522;2023-06-26T09:38:36;8.52;;;7.03;;
10440;SDS011;5268;49.346;9.522;2023-06-26T09:43:46;7.70;;;6.90;;
10440;SDS011;5268;49.346;9.522;2023-06-26T09:48:49;7.15;;;5.55;;
10440;SDS011;5268;49.346;9.522;2023-06-26T09:53:51;6.88;;;5.85;;
10440;SDS011;5268;49.346;9.522;2023-06-26T09:58:54;7.18;;;5.65;;
10440;SDS011;5268;49.346;9.522;2023-06-26T10:03:57;6.72;;;6.13;;
10440;SDS011;5268;49.346;9.522;2023-06-26T10:09:00;6.55;;;5.95;;
10440;SDS011;5268;49.346;9.522;2023-06-26T10:14:05;7.28;;;6.68;;
10440;SDS011;5268;49.346;9.522;2023-06-26T10:19:10;6.70;;;5.68;;
10440;SDS011;5268;49.346;9.522;2023-06-26T10:24:14;6.35;;;5.70;;
10440;SDS011;5268;49.346;9.522;2023-06-26T10:29:18;5.95;;;5.45;;
10440;SDS011;5268;49.346;9.522;2023-06-26T10:34:23;6.32;;;5.30;;
10440;SDS011;5268;49.346;9.522;2023-06-26T10:39:25;5.80;;;5.30;;
10440;SDS011;5268;49.346;9.522;2023-06-26T10:44:29;5.20;;;4.80;;
10440;SDS011;5268;49.346;9.522;2023-06-26T10:49:42;5.82;;;5.28;;
10440;SDS011;5268;49.346;9.522;2023-06-26T10:54:48;5.78;;;5.32;;
10440;SDS011;5268;49.346;9.522;2023-06-26T10:59:56;9.13;;;5.85;;
10440;SDS011;5268;49.346;9.522;2023-06-26T11:05:10;5.43;;;4.93;;
10440;SDS011;5268;49.346;9.522;2023-06-26T11:10:14;6.38;;;5.78;;
10440;SDS011;5268;49.346;9.522;2023-06-26T11:15:19;6.70;;;6.07;;
10440;SDS011;5268;49.346;9.522;2023-06-26T11:20:21;8.38;;;5.88;;
10440;SDS011;5268;49.346;9.522;2023-06-26T11:25:23;6.57;;;5.97;;
10440;SDS011;5268;49.346;9.522;2023-06-26T11:30:27;6.63;;;5.93;;
10440;SDS011;5268;49.346;9.522;2023-06-26T11:35:29;7.25;;;6.07;;
10440;SDS011;5268;49.346;9.522;2023-06-26T11:40:31;6.53;;;5.97;;
10440;SDS011;5268;49.346;9.522;2023-06-26T11:45:35;7.55;;;6.85;;
10440;SDS011;5268;49.346;9.522;2023-06-26T11:50:37;10.82;;;6.35;;
10440;SDS011;5268;49.346;9.522;2023-06-26T11:55:42;7.55;;;6.88;;
10440;SDS011;5268;49.346;9.522;2023-06-26T12:00:47;7.00;;;6.40;;
10440;SDS011;5268;49.346;9.522;2023-06-26T12:05:49;7.10;;;6.50;;
10440;SDS011;5268;49.346;9.522;2023-06-26T12:10:52;8.40;;;6.22;;
10440;SDS011;5268;49.346;9.522;2023-06-26T12:15:56;7.82;;;6.38;;
10440;SDS011;5268;49.346;9.522;2023-06-26T12:20:59;7.20;;;6.60;;
10440;SDS011;5268;49.346;9.522;2023-06-26T12:26:16;7.43;;;6.72;;
10440;SDS011;5268;49.346;9.522;2023-06-26T12:31:21;6.95;;;6.35;;
10440;SDS011;5268;49.346;9.522;2023-06-26T12:36:23;7.18;;;6.47;;
10440;SDS011;5268;49.346;9.522;2023-06-26T12:41:25;7.45;;;6.85;;
10440;SDS011;5268;49.346;9.522;2023-06-26T12:46:35;7.50;;;6.38;;
10440;SDS011;5268;49.346;9.522;2023-06-26T12:51:37;8.23;;;6.20;;
10440;SDS011;5268;49.346;9.522;2023-06-26T12:56:40;7.45;;;6.68;;
10440;SDS011;5268;49.346;9.522;2023-06-26T13:01:43;7.57;;;6.82;;
10440;SDS011;5268;49.346;9.522;2023-06-26T13:06:45;7.20;;;6.50;;
10440;SDS011;5268;49.346;9.522;2023-06-26T13:11:47;7.50;;;6.90;;
10440;SDS011;5268;49.346;9.522;2023-06-26T13:16:51;7.15;;;6.55;;
10440;SDS011;5268;49.346;9.522;2023-06-26T13:21:53;7.68;;;6.80;;
10440;SDS011;5268;49.346;9.522;2023-06-26T13:26:55;7.88;;;6.82;;
10440;SDS011;5268;49.346;9.522;2023-06-26T13:31:58;7.80;;;6.88;;
10440;SDS011;5268;49.346;9.522;2023-06-26T13:37:00;7.60;;;6.95;;
10440;SDS011;5268;49.346;9.522;2023-06-26T13:42:02;8.10;;;6.68;;
10440;SDS011;5268;49.346;9.522;2023-06-26T13:47:07;7.22;;;6.63;;
10440;SDS011;5268;49.346;9.522;2023-06-26T13:52:09;8.02;;;6.47;;
10440;SDS011;5268;49.346;9.522;2023-06-26T13:57:11;7.68;;;6.88;;
10440;SDS011;5268;49.346;9.522;2023-06-26T14:02:14;6.57;;;5.97;;
10440;SDS011;5268;49.346;9.522;2023-06-26T14:07:16;6.32;;;5.72;;
10440;SDS011;5268;49.346;9.522;2023-06-26T14:12:18;6.38;;;5.78;;
10440;SDS011;5268;49.346;9.522;2023-06-26T14:17:21;6.20;;;5.30;;
10440;SDS011;5268;49.346;9.522;2023-06-26T14:22:24;5.78;;;5.18;;
10440;SDS011;5268;49.346;9.522;2023-06-26T14:27:26;5.55;;;4.78;;
10440;SDS011;5268;49.346;9.522;2023-06-26T14:32:29;6.07;;;4.72;;
10440;SDS011;5268;49.346;9.522;2023-06-26T14:37:31;6.53;;;4.75;;
10440;SDS011;5268;49.346;9.522;2023-06-26T14:42:33;4.63;;;4.22;;
10440;SDS011;5268;49.346;9.522;2023-06-26T14:47:37;5.45;;;4.03;;
10440;SDS011;5268;49.346;9.522;2023-06-26T14:52:39;5.25;;;3.92;;
10440;SDS011;5268;49.346;9.522;2023-06-26T14:57:40;5.13;;;3.95;;
10440;SDS011;5268;49.346;9.522;2023-06-26T15:02:44;5.63;;;4.20;;
10440;SDS011;5268;49.346;9.522;2023-06-26T15:07:46;6.13;;;4.03;;
10440;SDS011;5268;49.346;9.522;2023-06-26T15:12:48;4.57;;;4.18;;
10440;SDS011;5268;49.346;9.522;2023-06-26T15:17:51;5.00;;;4.50;;
10440;SDS011;5268;49.346;9.522;2023-06-26T15:22:53;5.13;;;4.72;;
10440;SDS011;5268;49.346;9.522;2023-06-26T15:27:56;6.20;;;5.60;;
10440;SDS011;5268;49.346;9.522;2023-06-26T15:32:59;9.77;;;6.07;;
10440;SDS011;5268;49.346;9.522;2023-06-26T15:38:01;6.75;;;6.10;;
10440;SDS011;5268;49.346;9.522;2023-06-26T15:43:03;6.78;;;6.07;;
10440;SDS011;5268;49.346;9.522;2023-06-26T15:48:07;7.30;;;6.60;;
10440;SDS011;5268;49.346;9.522;2023-06-26T15:53:08;7.93;;;7.18;;
10440;SDS011;5268;49.346;9.522;2023-06-26T15:58:10;8.93;;;7.13;;
10440;SDS011;5268;49.346;9.522;2023-06-26T16:03:14;9.82;;;6.70;;
10440;SDS011;5268;49.346;9.522;2023-06-26T16:08:16;7.47;;;6.20;;
10440;SDS011;5268;49.346;9.522;2023-06-26T16:13:18;9.30;;;5.28;;
10440;SDS011;5268;49.346;9.522;2023-06-26T16:18:24;6.40;;;5.15;;
10440;SDS011;5268;49.346;9.522;2023-06-26T16:23:26;5.53;;;4.60;;
10440;SDS011;5268;49.346;9.522;2023-06-26T16:28:28;6.88;;;4.20;;
10440;SDS011;5268;49.346;9.522;2023-06-26T16:33:31;5.55;;;3.70;;
10440;SDS011;5268;49.346;9.522;2023-06-26T16:38:33;5.10;;;3.60;;
10440;SDS011;5268;49.346;9.522;2023-06-26T16:43:37;3.42;;;3.13;;
10440;SDS011;5268;49.346;9.522;2023-06-26T16:48:41;5.22;;;2.85;;
10440;SDS011;5268;49.346;9.522;2023-06-26T16:53:43;3.25;;;2.55;;
10440;SDS011;5268;49.346;9.522;2023-06-26T16:58:45;3.80;;;2.33;;
10440;SDS011;5268;49.346;9.522;2023-06-26T17:03:48;4.43;;;2.40;;
10440;SDS011;5268;49.346;9.522;2023-06-26T17:08:51;6.90;;;2.40;;
10440;SDS011;5268;49.346;9.522;2023-06-26T17:13:53;3.67;;;2.30;;
10440;SDS011;5268;49.346;9.522;2023-06-26T17:18:56;4.55;;;2.15;;
10440;SDS011;5268;49.346;9.522;2023-06-26T17:23:58;4.68;;;2.40;;
10440;SDS011;5268;49.346;9.522;2023-06-26T17:29:01;5.25;;;2.40;;
10440;SDS011;5268;49.346;9.522;2023-06-26T17:34:05;3.53;;;2.30;;
10440;SDS011;5268;49.346;9.522;2023-06-26T17:39:07;3.92;;;2.45;;
10440;SDS011;5268;49.346;9.522;2023-06-26T17:44:09;2.90;;;2.25;;
10440;SDS011;5268;49.346;9.522;2023-06-26T17:49:12;4.32;;;2.10;;
10440;SDS011;5268;49.346;9.522;2023-06-26T17:54:14;4.55;;;2.03;;
10440;SDS011;5268;49.346;9.522;2023-06-26T17:59:17;3.10;;;2.17;;
10440;SDS011;5268;49.346;9.522;2023-06-26T18:04:21;3.40;;;2.20;;
10440;SDS011;5268;49.346;9.522;2023-06-26T18:09:23;4.70;;;2.38;;
10440;SDS011;5268;49.346;9.522;2023-06-26T18:14:25;3.35;;;2.08;;
10440;SDS011;5268;49.346;9.522;2023-06-26T18:19:28;2.97;;;2.13;;
10440;SDS011;5268;49.346;9.522;2023-06-26T18:24:30;3.03;;;2.13;;
10440;SDS011;5268;49.346;9.522;2023-06-26T18:29:32;3.58;;;2.00;;
10440;SDS011;5268;49.346;9.522;2023-06-26T18:34:36;4.85;;;2.10;;
10440;SDS011;5268;49.346;9.522;2023-06-26T18:39:38;3.63;;;2.28;;
10440;SDS011;5268;49.346;9.522;2023-06-26T18:44:41;5.13;;;2.10;;
10440;SDS011;5268;49.346;9.522;2023-06-26T18:49:44;6.55;;;2.20;;
10440;SDS011;5268;49.346;9.522;2023-06-26T18:54:46;2.50;;;1.98;;
10440;SDS011;5268;49.346;9.522;2023-06-26T18:59:48;3.92;;;2.08;;
10440;SDS011;5268;49.346;9.522;2023-06-26T19:04:51;6.57;;;2.33;;
10440;SDS011;5268;49.346;9.522;2023-06-26T19:09:53;5.07;;;2.25;;
10440;SDS011;5268;49.346;9.522;2023-06-26T19:14:55;5.05;;;2.25;;
10440;SDS011;5268;49.346;9.522;2023-06-26T19:19:58;4.30;;;2.30;;
10440;SDS011;5268;49.346;9.522;2023-06-26T19:25:00;6.35;;;2.13;;
10440;SDS011;5268;49.346;9.522;2023-06-26T19:30:03;3.65;;;1.95;;
10440;SDS011;5268;49.346;9.522;2023-06-26T19:35:07;5.63;;;2.55;;
10440;SDS011;5268;49.346;9.522;2023-06-26T19:40:10;8.40;;;2.30;;
10440;SDS011;5268;49.346;9.522;2023-06-26T19:45:12;4.35;;;2.10;;
10440;SDS011;5268;49.346;9.522;2023-06-26T19:50:16;4.13;;;2.05;;
10440;SDS011;5268;49.346;9.522;2023-06-26T19:55:18;3.83;;;2.10;;
10440;SDS011;5268;49.346;9.522;2023-06-26T20:00:20;4.65;;;2.10;;
10440;SDS011;5268;49.346;9.522;2023-06-26T20:05:24;4.15;;;2.10;;
10440;SDS011;5268;49.346;9.522;2023-06-26T20:10:26;4.88;;;2.10;;
10440;SDS011;5268;49.346;9.522;2023-06-26T20:15:28;4.65;;;2.08;;
10440;SDS011;5268;49.346;9.522;2023-06-26T20:20:31;5.82;;;2.22;;
10440;SDS011;5268;49.346;9.522;2023-06-26T20:25:33;2.78;;;1.90;;
10440;SDS011;5268;49.346;9.522;2023-06-26T20:30:35;3.47;;;1.83;;
10440;SDS011;5268;49.346;9.522;2023-06-26T20:35:39;4.10;;;2.08;;
10440;SDS011;5268;49.346;9.522;2023-06-26T20:40:41;6.68;;;2.08;;
10440;SDS011;5268;49.346;9.522;2023-06-26T20:45:43;5.28;;;2.00;;
10440;SDS011;5268;49.346;9.522;2023-06-26T20:50:47;5.07;;;1.95;;
10440;SDS011;5268;49.346;9.522;2023-06-26T20:55:50;2.97;;;1.90;;
10440;SDS011;5268;49.346;9.522;2023-06-26T21:00:52;6.07;;;2.30;;
10440;SDS011;5268;49.346;9.522;2023-06-26T21:05:55;5.93;;;2.00;;
10440;SDS011;5268;49.346;9.522;2023-06-26T21:10:58;5.15;;;2.10;;
10440;SDS011;5268;49.346;9.522;2023-06-26T21:15:59;6.15;;;2.25;;
10440;SDS011;5268;49.346;9.522;2023-06-26T21:21:03;3.95;;;1.88;;
10440;SDS011;5268;49.346;9.522;2023-06-26T21:26:05;7.35;;;2.20;;
10440;SDS011;5268;49.346;9.522;2023-06-26T21:31:07;3.92;;;1.80;;
10440;SDS011;5268;49.346;9.522;2023-06-26T21:36:10;3.53;;;2.00;;
10440;SDS011;5268;49.346;9.522;2023-06-26T21:41:12;3.13;;;2.10;;
10440;SDS011;5268;49.346;9.522;2023-06-26T21:46:14;5.57;;;2.03;;
10440;SDS011;5268;49.346;9.522;2023-06-26T21:51:17;4.97;;;1.90;;
